Time;durP1;ratioP1;P1;durP2;ratioP2;P2;SDS_P1;SDS_P2;PMS_P1;PMS_P2;Temp;Humidity;BMP_temperature;BMP_pressure;BME280_temperature;BME280_humidity;BME280_pressure;Samples;Min_cycle;Max_cycle;Signal;HPM_P1;HPM_P2
2023/04/25 00:01:26;;;;;;;6.63;3.40;;;;;;;12.70;54.38;96856.00;5089108;28;20284;-71
2023/04/25 00:03:52;;;;;;;3.70;3.40;;;;;;;12.75;55.19;96858.09;5055381;28;20185;-69
2023/04/25 00:06:17;;;;;;;5.10;3.33;;;;;;;12.54;55.66;96851.63;5095137;28;20256;-69
2023/04/25 00:08:43;;;;;;;4.40;3.03;;;;;;;12.31;56.30;96853.41;5071316;28;20178;-69
2023/04/25 00:11:08;;;;;;;5.20;3.07;;;;;;;12.37;55.96;96850.09;5067408;28;20742;-69
2023/04/25 00:13:34;;;;;;;3.33;2.70;;;;;;;12.51;56.04;96851.16;5081835;28;20277;-69
2023/04/25 00:16:00;;;;;;;4.23;2.90;;;;;;;12.58;55.42;96841.59;5086274;28;20861;-68
2023/04/25 00:18:28;;;;;;;3.70;3.20;;;;;;;12.64;55.01;96835.66;5074976;28;20193;-70
2023/04/25 00:20:54;;;;;;;2.70;2.50;;;;;;;12.67;54.83;96839.72;5095506;28;20176;-69
2023/04/25 00:23:19;;;;;;;3.90;3.23;;;;;;;12.65;54.57;96837.28;5074064;28;20451;-69
2023/04/25 00:25:46;;;;;;;3.27;3.03;;;;;;;12.67;54.74;96842.34;5078755;28;20549;-70
2023/04/25 00:28:11;;;;;;;2.87;2.67;;;;;;;12.65;54.65;96833.84;5089081;28;20254;-69
2023/04/25 00:30:38;;;;;;;4.67;2.90;;;;;;;12.68;55.30;96836.09;5069745;28;20443;-69
2023/04/25 00:33:03;;;;;;;3.90;2.40;;;;;;;12.62;55.52;96845.50;5082614;28;20452;-69
2023/04/25 00:35:28;;;;;;;3.67;3.00;;;;;;;12.58;55.59;96836.34;5091644;28;20459;-69
2023/04/25 00:37:54;;;;;;;3.30;3.00;;;;;;;12.54;55.68;96827.97;5075243;28;20264;-69
2023/04/25 00:40:20;;;;;;;2.83;2.63;;;;;;;12.57;56.23;96837.34;5086756;28;20731;-70
2023/04/25 00:42:46;;;;;;;4.27;3.33;;;;;;;12.56;55.88;96830.44;5071842;28;20827;-70
2023/04/25 00:45:14;;;;;;;3.33;3.00;;;;;;;12.50;56.26;96829.34;5092314;28;20193;-69
2023/04/25 00:47:40;;;;;;;6.00;2.90;;;;;;;12.47;56.34;96829.66;5091900;28;20416;-69
2023/04/25 00:50:06;;;;;;;2.63;2.43;;;;;;;12.52;56.22;96824.72;5078065;28;20454;-70
2023/04/25 00:52:32;;;;;;;2.77;2.57;;;;;;;12.58;55.72;96816.13;5080007;28;20445;-69
2023/04/25 00:54:57;;;;;;;2.53;2.00;;;;;;;12.58;54.64;96828.47;5088959;28;20639;-69
2023/04/25 00:57:22;;;;;;;2.80;2.13;;;;;;;12.56;54.27;96826.00;5070148;28;20579;-70
2023/04/25 00:59:51;;;;;;;8.53;2.70;;;;;;;12.52;53.63;96818.63;5069186;28;20204;-69
2023/04/25 01:02:17;;;;;;;2.77;2.57;;;;;;;12.52;53.71;96821.25;5052762;28;20210;-70
2023/04/25 01:04:42;;;;;;;5.03;2.37;;;;;;;12.59;53.77;96816.97;5088587;28;20423;-70
2023/04/25 01:07:09;;;;;;;2.80;2.50;;;;;;;12.63;54.13;96807.72;5096000;28;20549;-69
2023/04/25 01:09:34;;;;;;;4.80;2.70;;;;;;;12.65;54.29;96805.72;5070618;28;20221;-71
2023/04/25 01:12:00;;;;;;;3.13;2.27;;;;;;;12.69;53.84;96811.44;5070193;28;20533;-69
2023/04/25 01:14:26;;;;;;;4.40;2.20;;;;;;;12.60;53.46;96808.09;5070278;28;20290;-70
2023/04/25 01:16:52;;;;;;;2.93;2.60;;;;;;;12.62;53.31;96797.38;5084955;28;20967;-68
2023/04/25 01:19:19;;;;;;;2.50;2.30;;;;;;;12.58;53.84;96799.56;5056878;28;20327;-69
2023/04/25 01:21:45;;;;;;;2.50;2.30;;;;;;;12.54;53.40;96793.81;5095279;28;20929;-69
2023/04/25 01:24:10;;;;;;;4.27;2.57;;;;;;;12.52;53.34;96797.59;5081430;28;21098;-69
2023/04/25 01:26:36;;;;;;;2.50;2.17;;;;;;;12.61;53.51;96791.28;5083772;28;20428;-70
2023/04/25 01:29:04;;;;;;;4.43;2.47;;;;;;;12.66;53.11;96794.22;5063059;28;20193;-69
2023/04/25 01:31:29;;;;;;;6.17;2.90;;;;;;;12.71;52.29;96797.16;5081585;28;20220;-69
2023/04/25 01:33:55;;;;;;;4.43;2.40;;;;;;;12.73;52.08;96792.53;5083296;28;20432;-69
2023/04/25 01:36:21;;;;;;;2.40;2.13;;;;;;;12.67;51.68;96805.53;5080968;28;20218;-69
2023/04/25 01:38:47;;;;;;;4.63;2.60;;;;;;;12.77;51.25;96793.00;5080040;28;20267;-69
2023/04/25 01:41:13;;;;;;;4.30;2.80;;;;;;;12.81;51.72;96803.97;5077545;28;20997;-70
2023/04/25 01:43:39;;;;;;;3.60;2.80;;;;;;;12.81;51.93;96799.53;5068224;28;20184;-68
2023/04/25 01:46:04;;;;;;;4.23;2.40;;;;;;;12.80;51.68;96805.78;5066314;28;20432;-68
2023/04/25 01:48:30;;;;;;;3.00;2.33;;;;;;;12.80;51.64;96799.72;5078686;28;20188;-69
2023/04/25 01:50:55;;;;;;;3.50;2.37;;;;;;;12.76;51.74;96809.78;5084498;28;20523;-68
2023/04/25 01:53:22;;;;;;;2.47;2.23;;;;;;;12.63;51.92;96802.47;5085762;28;20284;-69
2023/04/25 01:55:48;;;;;;;3.30;2.37;;;;;;;12.72;51.75;96801.44;5092580;28;20205;-68
2023/04/25 01:58:13;;;;;;;4.67;2.43;;;;;;;12.71;52.21;96799.78;5072655;28;20425;-69
2023/04/25 02:00:40;;;;;;;2.50;2.30;;;;;;;12.65;52.60;96797.84;5084543;28;20186;-69
2023/04/25 02:03:06;;;;;;;5.73;2.70;;;;;;;12.56;53.01;96791.03;5067915;28;20209;-69
2023/04/25 02:05:36;;;;;;;4.80;2.60;;;;;;;12.56;53.14;96785.75;5066587;28;20432;-69
2023/04/25 02:08:03;;;;;;;4.60;2.60;;;;;;;12.56;53.81;96796.28;5067331;28;20562;-69
2023/04/25 02:10:28;;;;;;;3.00;2.10;;;;;;;12.53;53.64;96801.88;5077904;28;20447;-70
2023/04/25 02:12:54;;;;;;;2.60;2.40;;;;;;;12.49;53.25;96806.66;5084691;28;20436;-69
2023/04/25 02:15:19;;;;;;;2.50;2.10;;;;;;;12.53;52.62;96800.09;5040308;28;20568;-70
2023/04/25 02:17:45;;;;;;;2.90;2.10;;;;;;;12.51;51.50;96798.59;5092600;28;20287;-69
2023/04/25 02:20:10;;;;;;;3.17;2.30;;;;;;;12.48;52.17;96793.69;5073280;28;20279;-70
2023/04/25 02:22:36;;;;;;;3.60;2.20;;;;;;;12.49;51.94;96790.06;5096056;28;20201;-70
2023/04/25 02:25:04;;;;;;;2.67;2.07;;;;;;;12.52;52.08;96781.84;5088120;28;20298;-69
2023/04/25 02:27:30;;;;;;;2.33;2.10;;;;;;;12.49;51.64;96787.44;5052254;28;20343;-70
2023/04/25 02:29:55;;;;;;;2.23;1.80;;;;;;;12.46;51.38;96774.66;5067388;28;20618;-68
2023/04/25 02:32:20;;;;;;;3.80;2.40;;;;;;;12.50;51.36;96770.69;5086236;28;20292;-70
2023/04/25 02:34:46;;;;;;;3.40;2.30;;;;;;;12.52;51.54;96779.22;5095833;28;20669;-70
2023/04/25 02:37:11;;;;;;;3.80;2.30;;;;;;;12.40;51.81;96774.34;5087614;28;20307;-68
2023/04/25 02:39:37;;;;;;;2.53;2.00;;;;;;;12.41;52.45;96775.19;5087178;28;20190;-69
2023/04/25 02:42:02;;;;;;;2.73;2.40;;;;;;;12.44;52.91;96778.28;5087711;28;20217;-69
2023/04/25 02:44:28;;;;;;;3.50;2.30;;;;;;;12.28;53.47;96775.75;5088373;28;20197;-70
2023/04/25 02:46:53;;;;;;;5.30;2.30;;;;;;;12.29;53.49;96774.75;5090978;28;20932;-69
2023/04/25 02:49:19;;;;;;;4.53;2.27;;;;;;;12.22;54.04;96773.84;5088958;28;20602;-70
2023/04/25 02:51:44;;;;;;;3.53;2.00;;;;;;;12.22;54.69;96773.84;5091436;28;20206;-69
2023/04/25 02:54:10;;;;;;;3.80;2.17;;;;;;;12.21;53.23;96762.50;5076836;28;20185;-69
2023/04/25 02:56:35;;;;;;;2.20;2.00;;;;;;;12.27;53.20;96766.22;5095996;28;20803;-70
2023/04/25 02:59:00;;;;;;;4.73;2.40;;;;;;;12.26;52.64;96767.22;5102577;28;20178;-69
2023/04/25 03:01:26;;;;;;;3.00;2.60;;;;;;;12.31;51.68;96759.66;5088752;28;20181;-70
2023/04/25 03:03:52;;;;;;;2.40;2.20;;;;;;;12.33;51.11;96765.56;5072924;28;20683;-69
2023/04/25 03:06:17;;;;;;;3.50;2.33;;;;;;;12.37;51.40;96764.19;5091316;28;20229;-70
2023/04/25 03:08:43;;;;;;;2.40;2.20;;;;;;;12.36;51.26;96765.19;5061164;28;20189;-70
2023/04/25 03:11:08;;;;;;;4.60;2.73;;;;;;;12.35;51.00;96763.53;5081733;28;20227;-71
2023/04/25 03:13:34;;;;;;;3.00;2.30;;;;;;;12.35;51.02;96760.91;5081752;28;20294;-70
2023/04/25 03:16:00;;;;;;;4.77;2.50;;;;;;;12.41;51.28;96762.84;5094272;28;20201;-69
2023/04/25 03:18:26;;;;;;;3.30;1.90;;;;;;;12.41;51.24;96762.84;5083249;28;20694;-70
2023/04/25 03:20:51;;;;;;;3.53;2.63;;;;;;;12.36;50.91;96759.13;5080445;28;20416;-69
2023/04/25 03:23:17;;;;;;;3.90;2.30;;;;;;;12.28;51.84;96760.81;5077980;28;20653;-70
2023/04/25 03:25:42;;;;;;;3.43;2.30;;;;;;;12.28;51.52;96758.19;5089227;28;20280;-70
2023/04/25 03:28:08;;;;;;;3.10;2.30;;;;;;;12.25;52.19;96758.53;5089730;28;20190;-68
2023/04/25 03:30:33;;;;;;;2.60;2.40;;;;;;;12.24;52.70;96753.44;5081852;28;20777;-69
2023/04/25 03:32:59;;;;;;;2.87;2.27;;;;;;;12.26;52.48;96743.56;5097000;28;20197;-69
2023/04/25 03:35:24;;;;;;;3.00;2.00;;;;;;;12.31;51.65;96743.88;5080669;28;20186;-69
2023/04/25 03:37:50;;;;;;;4.33;2.33;;;;;;;12.34;51.76;96751.44;5089503;28;20284;-68
2023/04/25 03:40:15;;;;;;;2.33;2.13;;;;;;;12.35;51.38;96752.22;5095012;28;20747;-70
2023/04/25 03:42:41;;;;;;;5.40;2.20;;;;;;;12.36;52.16;96759.13;5074387;28;20209;-68
2023/04/25 03:45:07;;;;;;;2.40;2.20;;;;;;;12.33;51.98;96762.91;5074475;28;20186;-68
2023/04/25 03:47:32;;;;;;;2.53;2.27;;;;;;;12.37;52.07;96761.56;5088505;28;20182;-68
2023/04/25 03:50:00;;;;;;;2.63;2.10;;;;;;;12.35;52.72;96755.66;5095327;28;20422;-69
2023/04/25 03:52:25;;;;;;;2.77;2.23;;;;;;;12.33;54.17;96765.56;5091229;28;20205;-69
2023/04/25 03:54:51;;;;;;;3.43;2.00;;;;;;;12.13;54.85;96760.72;5085552;28;20431;-69
2023/04/25 03:57:16;;;;;;;6.13;2.10;;;;;;;12.06;55.17;96765.03;5088780;28;20205;-68
2023/04/25 03:59:42;;;;;;;5.43;3.10;;;;;;;12.04;55.45;96764.41;5089655;28;20264;-69
2023/04/25 04:02:07;;;;;;;7.33;2.47;;;;;;;12.02;55.72;96747.19;5089415;28;20217;-70
2023/04/25 04:04:33;;;;;;;3.40;2.33;;;;;;;12.06;54.54;96746.66;5070185;28;20189;-70
2023/04/25 04:06:58;;;;;;;3.67;2.57;;;;;;;12.07;54.37;96748.31;5087957;28;20257;-69
2023/04/25 04:09:23;;;;;;;2.73;2.40;;;;;;;12.12;53.68;96753.03;5088673;28;20195;-69
2023/04/25 04:11:49;;;;;;;2.70;2.50;;;;;;;12.10;53.02;96761.06;5092552;28;20691;-69
2023/04/25 04:14:15;;;;;;;4.33;3.00;;;;;;;12.08;52.77;96762.22;5090880;28;20238;-69
2023/04/25 04:16:40;;;;;;;5.40;3.47;;;;;;;12.07;53.29;96757.97;5088213;28;20285;-69
2023/04/25 04:19:06;;;;;;;4.23;2.70;;;;;;;12.10;53.78;96757.63;5065517;28;20255;-68
2023/04/25 04:21:31;;;;;;;6.80;2.57;;;;;;;12.08;54.49;96762.22;5090396;28;20740;-70
2023/04/25 04:23:57;;;;;;;2.87;2.30;;;;;;;12.11;54.50;96769.78;5094876;28;20212;-69
2023/04/25 04:26:23;;;;;;;3.27;2.70;;;;;;;12.10;53.97;96776.00;5082491;28;20241;-70
2023/04/25 04:28:51;;;;;;;3.87;3.03;;;;;;;12.06;53.94;96770.28;5090537;28;20177;-71
2023/04/25 04:31:19;;;;;;;2.83;2.60;;;;;;;11.97;54.24;96771.31;5070377;28;20221;-68
2023/04/25 04:33:45;;;;;;;5.27;2.80;;;;;;;11.92;55.32;96773.63;5085092;28;20429;-68
2023/04/25 04:36:11;;;;;;;3.87;2.80;;;;;;;11.94;54.32;96776.88;5053691;28;20450;-71
2023/04/25 04:38:36;;;;;;;5.53;2.93;;;;;;;12.03;53.47;96778.50;5067291;28;20428;-69
2023/04/25 04:41:03;;;;;;;5.00;3.23;;;;;;;11.97;53.83;96776.56;5081334;28;20621;-69
2023/04/25 04:43:29;;;;;;;5.87;2.93;;;;;;;11.94;54.14;96767.19;5070624;28;20706;-69
2023/04/25 04:45:56;;;;;;;5.73;2.70;;;;;;;11.97;55.15;96776.56;5084426;28;20418;-68
2023/04/25 04:48:21;;;;;;;5.00;3.07;;;;;;;12.00;55.06;96784.09;5079499;28;20420;-69
2023/04/25 04:50:47;;;;;;;4.30;3.10;;;;;;;11.84;56.15;96788.41;5094519;28;20416;-68
2023/04/25 04:53:13;;;;;;;3.17;2.87;;;;;;;11.84;56.35;96791.03;5085106;28;20202;-69
2023/04/25 04:55:38;;;;;;;3.80;2.43;;;;;;;11.77;56.74;96786.66;5068521;28;20666;-69
2023/04/25 04:58:04;;;;;;;4.90;2.90;;;;;;;11.76;56.76;96785.00;5083108;28;20486;-68
2023/04/25 05:00:29;;;;;;;5.53;2.87;;;;;;;11.77;57.19;96789.28;5089201;28;20235;-70
2023/04/25 05:02:56;;;;;;;5.90;2.67;;;;;;;11.71;56.86;96793.41;5087221;28;20667;-69
2023/04/25 05:05:21;;;;;;;3.17;2.90;;;;;;;11.77;57.45;96794.53;5087895;28;20200;-70
2023/04/25 05:07:47;;;;;;;4.03;2.70;;;;;;;11.79;57.33;96797.78;5064963;28;20403;-67
2023/04/25 05:10:13;;;;;;;8.93;3.40;;;;;;;11.86;56.56;96800.53;5088311;28;20425;-68
2023/04/25 05:12:38;;;;;;;6.70;3.47;;;;;;;11.87;56.00;96786.44;5088365;28;20205;-71
2023/04/25 05:15:04;;;;;;;4.60;3.37;;;;;;;11.95;55.24;96800.34;5100923;28;20181;-69
2023/04/25 05:17:29;;;;;;;4.93;3.20;;;;;;;12.07;55.21;96802.63;5081993;28;20202;-70
2023/04/25 05:19:55;;;;;;;5.73;3.67;;;;;;;12.05;55.69;96797.56;5090924;28;20945;-70
2023/04/25 05:22:20;;;;;;;4.43;3.10;;;;;;;12.05;56.18;96802.81;5093946;28;20628;-71
2023/04/25 05:24:46;;;;;;;5.37;3.30;;;;;;;12.09;56.01;96798.84;5092184;28;20631;-69
2023/04/25 05:27:11;;;;;;;5.47;3.30;;;;;;;12.16;56.51;96803.41;5088542;28;20174;-68
2023/04/25 05:29:37;;;;;;;3.83;3.40;;;;;;;12.16;56.73;96801.59;5093212;28;20276;-71
2023/04/25 05:32:02;;;;;;;5.00;3.57;;;;;;;12.24;56.55;96803.34;5095806;28;20718;-69
2023/04/25 05:34:28;;;;;;;5.90;3.47;;;;;;;12.26;56.39;96798.75;5079107;28;20236;-69
2023/04/25 05:36:53;;;;;;;5.30;3.73;;;;;;;12.32;55.58;96803.31;5088076;28;20687;-69
2023/04/25 05:39:18;;;;;;;7.70;3.90;;;;;;;12.37;55.49;96803.59;5090148;28;20181;-69
2023/04/25 05:41:44;;;;;;;5.17;3.87;;;;;;;12.38;54.56;96804.44;5087690;28;20263;-69
2023/04/25 05:44:09;;;;;;;5.53;3.97;;;;;;;12.42;55.31;96805.72;5089225;28;20217;-70
2023/04/25 05:46:35;;;;;;;4.43;3.73;;;;;;;12.53;55.35;96804.50;5069501;28;20181;-70
2023/04/25 05:49:00;;;;;;;3.97;3.50;;;;;;;12.60;55.16;96802.84;5082993;28;20189;-69
2023/04/25 05:51:27;;;;;;;6.03;3.60;;;;;;;12.64;54.27;96793.56;5088576;28;20272;-70
2023/04/25 05:53:52;;;;;;;5.40;3.30;;;;;;;12.66;53.84;96804.75;5065810;28;20243;-69
2023/04/25 05:56:18;;;;;;;3.50;3.20;;;;;;;12.61;53.82;96807.06;5077165;28;20458;-69
2023/04/25 05:58:44;;;;;;;3.73;2.90;;;;;;;12.61;54.09;96809.69;5078220;28;20182;-71
2023/04/25 06:01:09;;;;;;;5.70;3.63;;;;;;;12.60;53.55;96805.47;5070611;28;20211;-70
2023/04/25 06:03:35;;;;;;;4.03;3.63;;;;;;;12.55;53.82;96816.47;5087555;28;20201;-69
2023/04/25 06:06:00;;;;;;;3.60;3.30;;;;;;;12.53;54.12;96813.22;5083043;28;20193;-69
2023/04/25 06:08:26;;;;;;;3.47;3.17;;;;;;;12.54;53.84;96814.03;5067076;28;20193;-70
2023/04/25 06:10:51;;;;;;;3.57;3.27;;;;;;;12.54;53.72;96814.84;5084169;28;20633;-71
2023/04/25 06:13:17;;;;;;;4.23;3.80;;;;;;;12.52;54.17;96811.59;5076521;28;20271;-69
2023/04/25 06:15:42;;;;;;;3.10;2.83;;;;;;;12.47;53.99;96813.09;5058150;28;20190;-70
2023/04/25 06:18:08;;;;;;;4.03;3.10;;;;;;;12.44;53.45;96809.81;5047865;28;20190;-70
2023/04/25 06:20:33;;;;;;;4.30;3.20;;;;;;;12.42;53.62;96803.91;5077638;28;20175;-71
2023/04/25 06:22:59;;;;;;;3.57;2.90;;;;;;;12.46;53.75;96801.75;5065477;28;20201;-70
2023/04/25 06:25:24;;;;;;;4.97;3.47;;;;;;;12.47;53.43;96795.50;5057518;28;20239;-70
2023/04/25 06:27:50;;;;;;;3.93;3.50;;;;;;;12.47;54.03;96802.59;5086447;28;20177;-70
2023/04/25 06:30:18;;;;;;;3.90;3.30;;;;;;;12.40;53.50;96797.22;5059083;28;20269;-70
2023/04/25 06:32:43;;;;;;;5.70;3.67;;;;;;;12.42;53.81;96796.03;5094439;28;20232;-70
2023/04/25 06:35:09;;;;;;;3.70;3.40;;;;;;;12.38;53.69;96800.00;5083960;28;20939;-69
2023/04/25 06:37:34;;;;;;;5.60;4.07;;;;;;;12.43;53.60;96796.84;5065049;28;20210;-70
2023/04/25 06:40:00;;;;;;;5.23;3.63;;;;;;;12.37;55.10;96800.19;5083132;28;20186;-69
2023/04/25 06:42:25;;;;;;;4.90;3.67;;;;;;;12.35;55.21;96802.16;5022679;28;20553;-70
2023/04/25 06:44:50;;;;;;;3.83;3.50;;;;;;;12.31;55.85;96799.06;5081345;28;20172;-71
2023/04/25 06:47:16;;;;;;;5.10;3.70;;;;;;;12.26;56.30;96811.88;5079196;28;20186;-69
2023/04/25 06:49:41;;;;;;;4.73;3.70;;;;;;;12.20;56.41;96810.75;5069105;28;20193;-71
2023/04/25 06:52:07;;;;;;;6.43;3.93;;;;;;;12.19;56.34;96803.06;5095524;28;20942;-70
2023/04/25 06:54:32;;;;;;;7.10;5.27;;;;;;;12.23;57.19;96799.91;5087732;28;20192;-70
2023/04/25 06:56:58;;;;;;;8.60;6.27;;;;;;;12.28;57.65;96794.16;5095669;28;20736;-69
2023/04/25 06:59:24;;;;;;;5.90;5.30;;;;;;;12.30;57.69;96792.16;5077406;28;20570;-70
2023/04/25 07:01:49;;;;;;;9.50;5.60;;;;;;;12.35;57.77;96792.44;5084387;28;20581;-70
2023/04/25 07:04:15;;;;;;;7.17;5.73;;;;;;;12.39;57.80;96801.63;5093331;28;20201;-71
2023/04/25 07:06:42;;;;;;;7.03;5.20;;;;;;;12.46;58.16;96800.94;5067814;28;20194;-70
2023/04/25 07:09:09;;;;;;;5.00;4.20;;;;;;;12.49;57.31;96800.56;5087698;28;20197;-70
2023/04/25 07:11:35;;;;;;;6.10;4.60;;;;;;;12.49;57.32;96808.47;5078935;28;20937;-71
2023/04/25 07:14:01;;;;;;;5.00;4.60;;;;;;;12.53;57.89;96813.22;5060119;28;20430;-70
2023/04/25 07:16:26;;;;;;;4.90;4.30;;;;;;;12.54;57.77;96814.03;5078675;28;20448;-71
2023/04/25 07:18:52;;;;;;;4.83;4.33;;;;;;;12.56;58.16;96817.31;5099297;28;20615;-71
2023/04/25 07:21:17;;;;;;;5.60;4.87;;;;;;;12.56;57.97;96818.09;5088905;28;20282;-71
2023/04/25 07:23:43;;;;;;;4.20;3.80;;;;;;;12.51;58.20;96812.56;5049233;28;21892;-71
2023/04/25 07:26:08;;;;;;;4.13;3.83;;;;;;;12.49;57.95;96816.34;5081788;28;20181;-70
2023/04/25 07:28:33;;;;;;;5.90;3.73;;;;;;;12.46;57.76;96820.16;5080436;28;20186;-70
2023/04/25 07:30:59;;;;;;;4.50;4.10;;;;;;;12.45;57.35;96826.41;5090589;28;20742;-71
2023/04/25 07:33:24;;;;;;;5.93;4.23;;;;;;;12.40;57.76;96826.91;5082820;28;20262;-70
2023/04/25 07:35:50;;;;;;;4.63;4.20;;;;;;;12.38;57.72;96825.47;5084829;28;20196;-70
2023/04/25 07:38:15;;;;;;;5.20;4.70;;;;;;;12.37;57.85;96829.88;5085851;28;20723;-71
2023/04/25 07:40:41;;;;;;;6.57;4.40;;;;;;;12.39;57.79;96827.91;5058720;28;20261;-70
2023/04/25 07:43:06;;;;;;;5.03;4.60;;;;;;;12.40;57.80;96829.53;5063399;28;20694;-70
2023/04/25 07:45:32;;;;;;;5.10;4.60;;;;;;;12.44;58.04;96830.00;5078020;28;20186;-70
2023/04/25 07:47:57;;;;;;;6.27;4.50;;;;;;;12.44;57.77;96838.72;5040824;28;20858;-70
2023/04/25 07:50:23;;;;;;;4.10;3.70;;;;;;;12.40;57.97;96836.63;5063996;28;20179;-70
2023/04/25 07:52:48;;;;;;;4.60;4.10;;;;;;;12.28;58.05;96842.28;5058556;28;20223;-71
2023/04/25 07:55:14;;;;;;;5.63;3.67;;;;;;;12.26;58.14;96844.25;5078300;28;20273;-70
2023/04/25 07:57:40;;;;;;;4.23;3.80;;;;;;;12.19;58.31;96845.09;5088597;28;20208;-70
2023/04/25 08:00:09;;;;;;;4.77;4.27;;;;;;;12.17;58.85;96853.13;5046882;28;20189;-70
2023/04/25 08:02:36;;;;;;;8.83;4.30;;;;;;;12.24;59.40;96862.00;5098632;28;20205;-70
2023/04/25 08:05:02;;;;;;;4.37;4.07;;;;;;;12.22;59.70;96863.97;5061793;28;20533;-71
2023/04/25 08:07:27;;;;;;;4.63;4.20;;;;;;;12.24;59.15;96862.00;5071607;28;20424;-70
2023/04/25 08:09:54;;;;;;;5.00;4.50;;;;;;;12.19;59.60;96859.03;5090000;28;20515;-70
2023/04/25 08:12:19;;;;;;;5.70;3.83;;;;;;;12.17;59.16;96862.84;5071281;28;20415;-70
2023/04/25 08:14:44;;;;;;;5.37;4.07;;;;;;;12.23;59.38;96867.41;5089629;28;20190;-70
2023/04/25 08:17:10;;;;;;;4.10;3.60;;;;;;;12.23;58.88;96867.41;5051046;28;20202;-70
2023/04/25 08:19:35;;;;;;;4.90;4.33;;;;;;;12.18;59.12;96869.72;5087371;28;20643;-71
2023/04/25 08:22:01;;;;;;;5.43;4.30;;;;;;;12.26;59.53;96874.94;5072337;28;20201;-70
2023/04/25 08:24:27;;;;;;;4.50;4.10;;;;;;;12.26;59.60;96872.31;5051026;28;20194;-70
2023/04/25 08:26:53;;;;;;;5.73;4.73;;;;;;;12.36;59.69;96885.25;5084899;28;20399;-69
2023/04/25 08:29:19;;;;;;;5.30;4.80;;;;;;;12.35;59.67;96889.66;5071554;28;20205;-71
2023/04/25 08:31:45;;;;;;;5.70;5.10;;;;;;;12.36;59.75;96891.31;5055499;28;21394;-71
2023/04/25 08:34:10;;;;;;;6.73;4.90;;;;;;;12.30;59.17;96897.25;5035726;28;20178;-70
2023/04/25 08:36:36;;;;;;;4.77;4.20;;;;;;;12.27;59.03;96894.97;5087472;28;20560;-73
2023/04/25 08:39:02;;;;;;;5.10;4.60;;;;;;;12.25;59.70;96904.84;5055395;28;20200;-71
2023/04/25 08:41:27;;;;;;;7.87;4.50;;;;;;;12.18;59.57;96893.38;5035210;28;20184;-70
2023/04/25 08:43:53;;;;;;;6.53;5.00;;;;;;;12.17;59.60;96899.63;5079035;28;20180;-72
2023/04/25 08:46:19;;;;;;;8.77;4.90;;;;;;;12.23;59.21;96907.63;5053887;28;20212;-72
2023/04/25 08:48:46;;;;;;;6.07;4.90;;;;;;;12.27;58.57;96914.19;5041760;28;20879;-70
2023/04/25 08:51:19;;;;;;;5.03;4.63;;;;;;;12.29;58.13;96908.75;5060164;28;20456;-71
2023/04/25 08:53:45;;;;;;;6.70;5.40;;;;;;;12.31;58.55;96913.84;5074166;28;20437;-71
2023/04/25 08:56:13;;;;;;;6.40;4.60;;;;;;;12.27;58.58;96919.47;5071789;28;20960;-70
2023/04/25 08:58:39;;;;;;;6.57;5.43;;;;;;;12.31;58.54;96919.94;5095259;28;20428;-70
2023/04/25 09:01:04;;;;;;;6.53;5.00;;;;;;;12.31;59.33;96924.34;5097544;28;20421;-69
2023/04/25 09:03:30;;;;;;;5.10;4.30;;;;;;;12.35;58.83;96920.41;5072883;28;20440;-71
2023/04/25 09:05:56;;;;;;;6.47;5.80;;;;;;;12.38;59.46;96925.31;5068748;28;20178;-70
2023/04/25 09:08:21;;;;;;;6.50;5.30;;;;;;;12.34;58.81;96929.28;5074087;28;20173;-70
2023/04/25 09:10:46;;;;;;;8.20;5.20;;;;;;;12.22;59.29;96932.28;5094737;28;20178;-70
2023/04/25 09:13:17;;;;;;;7.00;5.13;;;;;;;12.26;59.45;96938.00;5062149;28;20201;-70
2023/04/25 09:15:51;;;;;;;5.30;4.80;;;;;;;12.17;58.87;96934.56;5066506;28;20186;-71
2023/04/25 09:18:28;;;;;;;5.97;5.10;;;;;;;12.24;58.70;96947.84;5065628;28;20442;-71
2023/04/25 09:21:12;;;;;;;7.67;4.20;;;;;;;12.18;58.45;96943.28;5075074;28;20451;-71
2023/04/25 09:23:48;;;;;;;4.30;3.90;;;;;;;12.15;59.27;96947.09;5097211;28;20443;-70
2023/04/25 09:26:15;;;;;;;5.57;4.73;;;;;;;12.11;58.40;96951.81;5045999;28;20436;-69
2023/04/25 09:28:42;;;;;;;5.57;4.50;;;;;;;12.05;58.96;96955.13;5070438;28;20986;-70
2023/04/25 09:31:10;;;;;;;4.83;4.43;;;;;;;11.95;58.54;96957.09;5096917;28;20432;-70
2023/04/25 09:33:35;;;;;;;5.17;3.80;;;;;;;12.07;58.26;96960.22;5074779;28;20440;-70
2023/04/25 09:36:07;;;;;;;5.00;3.87;;;;;;;12.07;58.98;96968.94;5081331;28;20527;-70
2023/04/25 09:38:44;;;;;;;3.93;3.63;;;;;;;12.15;58.63;96973.34;5088593;28;20527;-69
2023/04/25 09:41:10;;;;;;;4.57;4.00;;;;;;;12.13;58.90;96976.13;5062519;28;20434;-71
2023/04/25 09:43:36;;;;;;;6.70;3.83;;;;;;;12.17;58.65;96975.78;5088710;28;20489;-71
2023/04/25 09:46:01;;;;;;;4.07;3.67;;;;;;;12.11;58.54;96979.91;5069689;28;20428;-70
2023/04/25 09:48:28;;;;;;;5.70;3.80;;;;;;;12.11;58.20;96990.44;5086933;28;20920;-70
2023/04/25 09:51:14;;;;;;;4.50;4.10;;;;;;;12.04;58.16;96986.81;5086034;28;20716;-70
2023/04/25 09:53:46;;;;;;;4.20;3.90;;;;;;;12.03;59.03;96991.25;5087227;28;20969;-71
2023/04/25 09:56:12;;;;;;;3.97;3.67;;;;;;;12.00;58.76;97002.09;5089211;28;20487;-70
2023/04/25 09:58:39;;;;;;;4.00;3.33;;;;;;;12.03;58.01;97000.94;5085012;28;20490;-70
2023/04/25 10:01:10;;;;;;;3.47;3.17;;;;;;;11.94;57.80;97002.75;5085370;28;20416;-69
2023/04/25 10:03:42;;;;;;;3.40;2.40;;;;;;;11.86;57.50;97000.09;5062399;28;20493;-69
2023/04/25 10:06:10;;;;;;;2.03;1.93;;;;;;;11.84;57.02;97014.22;5074336;28;21017;-69
2023/04/25 10:08:37;;;;;;;3.30;2.13;;;;;;;11.69;56.72;97005.38;5056973;28;20456;-72
2023/04/25 10:11:07;;;;;;;2.17;1.97;;;;;;;11.87;57.17;97007.00;5065987;28;20424;-71
2023/04/25 10:13:33;;;;;;;1.60;1.50;;;;;;;11.97;56.50;97005.84;5072768;28;20439;-69
2023/04/25 10:15:59;;;;;;;2.40;2.20;;;;;;;12.03;56.75;97021.97;5092168;28;20836;-70
2023/04/25 10:18:29;;;;;;;1.63;1.40;;;;;;;12.00;56.38;97022.28;5063911;28;20474;-71
2023/04/25 10:20:56;;;;;;;1.83;1.50;;;;;;;12.05;56.57;97026.06;5077683;28;20426;-71
2023/04/25 10:23:23;;;;;;;1.70;1.50;;;;;;;12.17;56.49;97028.34;5086432;28;20457;-71
2023/04/25 10:25:50;;;;;;;1.70;1.60;;;;;;;12.22;57.02;97028.66;5078039;28;20444;-71
2023/04/25 10:28:15;;;;;;;3.20;1.20;;;;;;;12.20;57.62;97026.19;5069685;28;20510;-70
2023/04/25 10:31:01;;;;;;;1.30;1.20;;;;;;;12.16;56.89;97037.22;5064914;28;20440;-70
2023/04/25 10:33:37;;;;;;;1.30;1.20;;;;;;;12.14;56.44;97029.50;5064106;28;20205;-70
2023/04/25 10:36:18;;;;;;;1.20;1.00;;;;;;;12.14;56.47;97035.56;5043757;28;20921;-71
2023/04/25 10:38:45;;;;;;;1.33;1.23;;;;;;;12.17;56.55;97041.47;5074261;28;20417;-70
2023/04/25 10:41:12;;;;;;;2.60;1.10;;;;;;;12.12;56.91;97041.97;5061077;28;20427;-70
2023/04/25 10:43:44;;;;;;;2.13;1.47;;;;;;;12.10;57.59;97049.19;5062724;28;20551;-70
2023/04/25 10:46:27;;;;;;;1.57;1.47;;;;;;;12.13;57.40;97048.88;5066384;28;20423;-70
2023/04/25 10:49:00;;;;;;;1.43;1.33;;;;;;;12.12;57.48;97052.47;5056433;28;21156;-70
2023/04/25 10:51:27;;;;;;;1.60;1.40;;;;;;;12.15;58.23;97049.53;5060703;28;20466;-69
2023/04/25 10:53:57;;;;;;;1.63;1.50;;;;;;;12.17;58.39;97050.16;5067984;28;20476;-70
2023/04/25 10:56:26;;;;;;;1.50;1.40;;;;;;;12.21;58.94;97055.94;5055008;28;20448;-69
2023/04/25 10:58:51;;;;;;;1.70;1.60;;;;;;;12.17;58.21;97062.50;5069920;28;20928;-70
2023/04/25 11:01:21;;;;;;;2.00;1.57;;;;;;;12.17;58.55;97075.63;5069723;28;20515;-71
2023/04/25 11:03:50;;;;;;;1.83;1.30;;;;;;;12.17;58.77;97084.31;5082106;28;20224;-70
2023/04/25 11:06:53;;;;;;;1.70;1.53;;;;;;;12.11;57.48;97088.44;5091096;28;20418;-70
2023/04/25 11:09:18;;;;;;;2.60;2.00;;;;;;;12.05;57.51;97088.25;5078755;28;20498;-69
2023/04/25 11:11:53;;;;;;;2.40;2.20;;;;;;;11.96;56.98;97095.31;5072172;28;20422;-70
2023/04/25 11:14:19;;;;;;;2.77;2.53;;;;;;;11.95;58.11;97085.78;5098382;28;20184;-70
2023/04/25 11:16:45;;;;;;;3.87;2.67;;;;;;;11.91;57.98;97102.84;5072722;28;20481;-70
2023/04/25 11:19:11;;;;;;;2.70;2.50;;;;;;;11.91;57.89;97098.41;5092783;28;20431;-70
2023/04/25 11:21:36;;;;;;;3.07;2.83;;;;;;;11.89;57.06;97105.66;5088099;28;20620;-70
2023/04/25 11:24:02;;;;;;;2.90;2.60;;;;;;;11.91;57.79;97101.03;5074460;28;20199;-70
2023/04/25 11:26:27;;;;;;;3.00;2.70;;;;;;;11.93;58.17;97106.13;5045184;28;20719;-69
2023/04/25 11:28:57;;;;;;;2.50;2.30;;;;;;;11.91;56.91;97105.47;5091329;28;20265;-70
2023/04/25 11:31:24;;;;;;;5.73;2.50;;;;;;;11.91;56.78;97108.09;5092383;28;20204;-69